North Woodstock, New Hampshire
Current Conditions -  °F | °C
As of 3:15 AM on Sunday 26 Oct 2014 (Local Time) from K1P1 Reporting Station
Moderate Fog Moderate Fog  
Wind Chill: 41°   Ceiling: 500
Heat Index: 41°   Visibility: 0.5mi
Dew Point: 41°   Wind: 0mph
Humidity: 100%   Direction: NA
Pressure: 29.41"   Gusts: NA
Location:  44.03°N, 71.69°W
Report Text: K1P1 260715Z AUTO 00000KT 1/2SM FG VV005 05/05 A2941 RMK AO2 T00510051
Loading
Personal Weather Stations






























Interactive Weather Map
Tropical Storm Tracking
New forecast layout! Learn more

10-Day Weather Forecast

Advertisements
Track Severe Weather on mobile